sensor_id;sensor_type;location;lat;lon;timestamp;P1;durP1;ratioP1;P2;durP2;ratioP2
32321;SDS011;61553;48.994;8.940;2022-12-18T00:02:06;93.07;;;36.73;;
32321;SDS011;61553;48.994;8.940;2022-12-18T00:04:31;101.63;;;36.77;;
32321;SDS011;61553;48.994;8.940;2022-12-18T00:06:57;89.77;;;38.40;;
32321;SDS011;61553;48.994;8.940;2022-12-18T00:09:23;94.27;;;38.07;;
32321;SDS011;61553;48.994;8.940;2022-12-18T00:11:48;104.97;;;38.57;;
32321;SDS011;61553;48.994;8.940;2022-12-18T00:14:14;101.07;;;39.53;;
32321;SDS011;61553;48.994;8.940;2022-12-18T00:16:43;91.13;;;37.70;;
32321;SDS011;61553;48.994;8.940;2022-12-18T00:19:10;89.97;;;37.63;;
32321;SDS011;61553;48.994;8.940;2022-12-18T00:21:36;93.87;;;36.70;;
32321;SDS011;61553;48.994;8.940;2022-12-18T00:24:02;101.30;;;38.80;;
32321;SDS011;61553;48.994;8.940;2022-12-18T00:26:29;94.30;;;37.97;;
32321;SDS011;61553;48.994;8.940;2022-12-18T00:29:00;90.20;;;37.47;;
32321;SDS011;61553;48.994;8.940;2022-12-18T00:31:28;105.85;;;39.17;;
32321;SDS011;61553;48.994;8.940;2022-12-18T00:33:54;93.90;;;37.10;;
32321;SDS011;61553;48.994;8.940;2022-12-18T00:36:25;97.70;;;39.00;;
32321;SDS011;61553;48.994;8.940;2022-12-18T00:38:53;106.87;;;40.47;;
32321;SDS011;61553;48.994;8.940;2022-12-18T00:41:20;103.83;;;40.07;;
32321;SDS011;61553;48.994;8.940;2022-12-18T00:44:04;109.37;;;39.93;;
32321;SDS011;61553;48.994;8.940;2022-12-18T00:46:31;98.03;;;37.63;;
32321;SDS011;61553;48.994;8.940;2022-12-18T00:48:57;105.47;;;39.23;;
32321;SDS011;61553;48.994;8.940;2022-12-18T00:51:24;99.00;;;35.63;;
32321;SDS011;61553;48.994;8.940;2022-12-18T00:53:50;81.67;;;33.87;;
32321;SDS011;61553;48.994;8.940;2022-12-18T00:56:16;93.87;;;35.53;;
32321;SDS011;61553;48.994;8.940;2022-12-18T00:58:41;99.20;;;37.00;;
32321;SDS011;61553;48.994;8.940;2022-12-18T01:01:07;93.73;;;35.03;;
32321;SDS011;61553;48.994;8.940;2022-12-18T01:03:33;95.73;;;36.67;;
32321;SDS011;61553;48.994;8.940;2022-12-18T01:05:59;104.97;;;36.60;;
32321;SDS011;61553;48.994;8.940;2022-12-18T01:08:30;78.57;;;33.97;;
32321;SDS011;61553;48.994;8.940;2022-12-18T01:10:55;97.27;;;36.50;;
32321;SDS011;61553;48.994;8.940;2022-12-18T01:13:21;84.80;;;35.27;;
32321;SDS011;61553;48.994;8.940;2022-12-18T01:15:50;99.10;;;36.77;;
32321;SDS011;61553;48.994;8.940;2022-12-18T01:18:16;92.70;;;37.60;;
32321;SDS011;61553;48.994;8.940;2022-12-18T01:20:42;97.30;;;36.27;;
32321;SDS011;61553;48.994;8.940;2022-12-18T01:23:07;93.60;;;36.50;;
32321;SDS011;61553;48.994;8.940;2022-12-18T01:25:35;95.80;;;33.90;;
32321;SDS011;61553;48.994;8.940;2022-12-18T01:28:01;86.97;;;34.53;;
32321;SDS011;61553;48.994;8.940;2022-12-18T01:30:27;91.67;;;35.13;;
32321;SDS011;61553;48.994;8.940;2022-12-18T01:32:53;93.40;;;34.93;;
32321;SDS011;61553;48.994;8.940;2022-12-18T01:35:18;96.33;;;36.57;;
32321;SDS011;61553;48.994;8.940;2022-12-18T01:37:44;87.53;;;37.40;;
32321;SDS011;61553;48.994;8.940;2022-12-18T01:40:10;102.53;;;41.10;;
32321;SDS011;61553;48.994;8.940;2022-12-18T01:42:36;104.57;;;39.00;;
32321;SDS011;61553;48.994;8.940;2022-12-18T01:45:06;93.20;;;37.33;;
32321;SDS011;61553;48.994;8.940;2022-12-18T01:47:52;105.63;;;40.23;;
32321;SDS011;61553;48.994;8.940;2022-12-18T01:52:52;97.60;;;38.73;;
32321;SDS011;61553;48.994;8.940;2022-12-18T01:55:20;103.57;;;40.30;;
32321;SDS011;61553;48.994;8.940;2022-12-18T01:57:52;92.63;;;35.13;;
32321;SDS011;61553;48.994;8.940;2022-12-18T02:00:20;91.77;;;36.57;;
32321;SDS011;61553;48.994;8.940;2022-12-18T02:02:47;96.37;;;36.10;;
32321;SDS011;61553;48.994;8.940;2022-12-18T02:05:59;98.40;;;37.20;;
32321;SDS011;61553;48.994;8.940;2022-12-18T02:10:48;97.93;;;36.83;;
32321;SDS011;61553;48.994;8.940;2022-12-18T02:13:36;104.33;;;38.30;;
32321;SDS011;61553;48.994;8.940;2022-12-18T02:18:50;101.23;;;36.53;;
32321;SDS011;61553;48.994;8.940;2022-12-18T02:24:35;100.00;;;37.60;;
32321;SDS011;61553;48.994;8.940;2022-12-18T02:27:24;91.13;;;35.73;;
32321;SDS011;61553;48.994;8.940;2022-12-18T02:29:51;89.53;;;36.93;;
32321;SDS011;61553;48.994;8.940;2022-12-18T02:32:20;102.73;;;38.73;;
32321;SDS011;61553;48.994;8.940;2022-12-18T02:34:52;90.47;;;35.67;;
32321;SDS011;61553;48.994;8.940;2022-12-18T02:37:20;93.83;;;36.77;;
32321;SDS011;61553;48.994;8.940;2022-12-18T02:39:47;94.70;;;37.10;;
32321;SDS011;61553;48.994;8.940;2022-12-18T02:42:14;80.73;;;34.43;;
32321;SDS011;61553;48.994;8.940;2022-12-18T02:44:46;93.53;;;33.20;;
32321;SDS011;61553;48.994;8.940;2022-12-18T02:47:15;99.10;;;35.85;;
32321;SDS011;61553;48.994;8.940;2022-12-18T02:55:01;95.03;;;38.07;;
32321;SDS011;61553;48.994;8.940;2022-12-18T02:57:33;90.93;;;37.97;;
32321;SDS011;61553;48.994;8.940;2022-12-18T03:02:56;84.17;;;35.53;;
32321;SDS011;61553;48.994;8.940;2022-12-18T03:05:34;94.50;;;34.17;;
32321;SDS011;61553;48.994;8.940;2022-12-18T03:08:14;90.23;;;34.97;;
32321;SDS011;61553;48.994;8.940;2022-12-18T03:10:49;97.75;;;34.60;;
32321;SDS011;61553;48.994;8.940;2022-12-18T03:13:28;93.67;;;35.60;;
32321;SDS011;61553;48.994;8.940;2022-12-18T03:18:29;87.60;;;34.57;;
32321;SDS011;61553;48.994;8.940;2022-12-18T03:21:02;91.33;;;33.30;;
32321;SDS011;61553;48.994;8.940;2022-12-18T03:23:32;88.97;;;36.60;;
32321;SDS011;61553;48.994;8.940;2022-12-18T03:26:03;78.03;;;33.67;;
32321;SDS011;61553;48.994;8.940;2022-12-18T03:28:33;82.37;;;32.27;;
32321;SDS011;61553;48.994;8.940;2022-12-18T03:31:03;98.07;;;36.43;;
32321;SDS011;61553;48.994;8.940;2022-12-18T03:33:37;93.60;;;34.87;;
32321;SDS011;61553;48.994;8.940;2022-12-18T03:36:11;86.57;;;33.27;;
32321;SDS011;61553;48.994;8.940;2022-12-18T03:38:37;90.13;;;34.73;;
32321;SDS011;61553;48.994;8.940;2022-12-18T03:41:07;80.77;;;32.97;;
32321;SDS011;61553;48.994;8.940;2022-12-18T03:44:03;91.23;;;34.10;;
32321;SDS011;61553;48.994;8.940;2022-12-18T03:49:45;82.77;;;32.07;;
32321;SDS011;61553;48.994;8.940;2022-12-18T03:52:19;83.77;;;32.47;;
32321;SDS011;61553;48.994;8.940;2022-12-18T03:54:50;87.77;;;32.33;;
32321;SDS011;61553;48.994;8.940;2022-12-18T03:57:18;77.73;;;31.13;;
32321;SDS011;61553;48.994;8.940;2022-12-18T03:59:47;90.97;;;32.63;;
32321;SDS011;61553;48.994;8.940;2022-12-18T04:02:17;84.37;;;31.17;;
32321;SDS011;61553;48.994;8.940;2022-12-18T04:04:44;84.83;;;32.43;;
32321;SDS011;61553;48.994;8.940;2022-12-18T04:07:11;83.57;;;32.97;;
32321;SDS011;61553;48.994;8.940;2022-12-18T04:09:39;79.77;;;33.20;;
32321;SDS011;61553;48.994;8.940;2022-12-18T04:12:06;87.23;;;32.10;;
32321;SDS011;61553;48.994;8.940;2022-12-18T04:14:31;86.43;;;32.13;;
32321;SDS011;61553;48.994;8.940;2022-12-18T04:17:00;81.53;;;30.27;;
32321;SDS011;61553;48.994;8.940;2022-12-18T04:19:27;87.07;;;32.27;;
32321;SDS011;61553;48.994;8.940;2022-12-18T04:21:53;79.67;;;33.43;;
32321;SDS011;61553;48.994;8.940;2022-12-18T04:24:19;81.67;;;32.10;;
32321;SDS011;61553;48.994;8.940;2022-12-18T04:26:44;91.73;;;35.73;;
32321;SDS011;61553;48.994;8.940;2022-12-18T04:29:10;88.33;;;33.30;;
32321;SDS011;61553;48.994;8.940;2022-12-18T04:31:36;86.80;;;31.60;;
32321;SDS011;61553;48.994;8.940;2022-12-18T04:34:01;78.33;;;30.40;;
32321;SDS011;61553;48.994;8.940;2022-12-18T04:36:27;78.97;;;29.97;;
32321;SDS011;61553;48.994;8.940;2022-12-18T04:38:53;88.73;;;31.70;;
32321;SDS011;61553;48.994;8.940;2022-12-18T04:41:19;78.80;;;28.77;;
32321;SDS011;61553;48.994;8.940;2022-12-18T04:43:44;88.43;;;30.53;;
32321;SDS011;61553;48.994;8.940;2022-12-18T04:46:10;79.77;;;31.90;;
32321;SDS011;61553;48.994;8.940;2022-12-18T04:48:36;78.53;;;30.43;;
32321;SDS011;61553;48.994;8.940;2022-12-18T04:51:02;74.67;;;29.87;;
32321;SDS011;61553;48.994;8.940;2022-12-18T04:53:29;68.53;;;28.73;;
32321;SDS011;61553;48.994;8.940;2022-12-18T04:58:29;74.20;;;29.47;;
32321;SDS011;61553;48.994;8.940;2022-12-18T05:00:55;81.10;;;30.77;;
32321;SDS011;61553;48.994;8.940;2022-12-18T05:03:21;81.47;;;32.40;;
32321;SDS011;61553;48.994;8.940;2022-12-18T05:05:49;67.03;;;27.87;;
32321;SDS011;61553;48.994;8.940;2022-12-18T05:08:15;88.13;;;30.07;;
32321;SDS011;61553;48.994;8.940;2022-12-18T05:10:41;78.40;;;28.17;;
32321;SDS011;61553;48.994;8.940;2022-12-18T05:13:07;78.40;;;27.83;;
32321;SDS011;61553;48.994;8.940;2022-12-18T05:15:33;73.97;;;28.93;;
32321;SDS011;61553;48.994;8.940;2022-12-18T05:17:59;74.27;;;27.60;;
32321;SDS011;61553;48.994;8.940;2022-12-18T05:20:26;64.40;;;27.73;;
32321;SDS011;61553;48.994;8.940;2022-12-18T05:22:52;68.33;;;27.17;;
32321;SDS011;61553;48.994;8.940;2022-12-18T05:25:17;77.97;;;28.57;;
32321;SDS011;61553;48.994;8.940;2022-12-18T05:27:44;75.83;;;26.93;;
32321;SDS011;61553;48.994;8.940;2022-12-18T05:30:10;77.50;;;28.60;;
32321;SDS011;61553;48.994;8.940;2022-12-18T05:32:36;74.50;;;29.23;;
32321;SDS011;61553;48.994;8.940;2022-12-18T05:35:02;73.73;;;30.27;;
32321;SDS011;61553;48.994;8.940;2022-12-18T05:37:28;79.33;;;31.27;;
32321;SDS011;61553;48.994;8.940;2022-12-18T05:39:53;78.40;;;28.30;;
32321;SDS011;61553;48.994;8.940;2022-12-18T05:42:19;70.10;;;27.77;;
32321;SDS011;61553;48.994;8.940;2022-12-18T05:44:45;99.57;;;36.83;;
32321;SDS011;61553;48.994;8.940;2022-12-18T05:47:10;78.90;;;31.07;;
32321;SDS011;61553;48.994;8.940;2022-12-18T05:49:36;79.97;;;30.13;;
32321;SDS011;61553;48.994;8.940;2022-12-18T05:52:02;67.63;;;27.07;;
32321;SDS011;61553;48.994;8.940;2022-12-18T05:54:28;77.73;;;28.13;;
32321;SDS011;61553;48.994;8.940;2022-12-18T05:56:53;71.07;;;27.47;;
32321;SDS011;61553;48.994;8.940;2022-12-18T05:59:19;68.87;;;26.43;;
32321;SDS011;61553;48.994;8.940;2022-12-18T06:01:45;73.90;;;28.07;;
32321;SDS011;61553;48.994;8.940;2022-12-18T06:04:11;78.87;;;27.57;;
32321;SDS011;61553;48.994;8.940;2022-12-18T06:06:37;63.90;;;24.97;;
32321;SDS011;61553;48.994;8.940;2022-12-18T06:09:03;79.43;;;27.87;;
32321;SDS011;61553;48.994;8.940;2022-12-18T06:11:33;79.70;;;30.10;;
32321;SDS011;61553;48.994;8.940;2022-12-18T06:14:00;70.17;;;28.40;;
32321;SDS011;61553;48.994;8.940;2022-12-18T06:16:27;75.50;;;27.37;;
32321;SDS011;61553;48.994;8.940;2022-12-18T06:18:57;75.77;;;27.87;;
32321;SDS011;61553;48.994;8.940;2022-12-18T06:21:23;78.13;;;29.07;;
32321;SDS011;61553;48.994;8.940;2022-12-18T06:23:49;68.90;;;28.50;;
32321;SDS011;61553;48.994;8.940;2022-12-18T06:26:15;71.23;;;28.53;;
32321;SDS011;61553;48.994;8.940;2022-12-18T06:28:41;73.57;;;27.40;;
32321;SDS011;61553;48.994;8.940;2022-12-18T06:31:07;73.70;;;26.87;;
32321;SDS011;61553;48.994;8.940;2022-12-18T06:33:33;74.77;;;27.60;;
32321;SDS011;61553;48.994;8.940;2022-12-18T06:36:00;72.67;;;29.20;;
32321;SDS011;61553;48.994;8.940;2022-12-18T06:38:37;75.80;;;29.47;;
32321;SDS011;61553;48.994;8.940;2022-12-18T06:41:07;77.77;;;31.57;;
32321;SDS011;61553;48.994;8.940;2022-12-18T06:43:34;89.87;;;36.10;;
32321;SDS011;61553;48.994;8.940;2022-12-18T06:46:00;111.80;;;39.80;;
32321;SDS011;61553;48.994;8.940;2022-12-18T06:48:26;89.23;;;36.27;;
32321;SDS011;61553;48.994;8.940;2022-12-18T06:50:52;88.07;;;35.63;;
32321;SDS011;61553;48.994;8.940;2022-12-18T06:53:18;75.43;;;29.50;;
32321;SDS011;61553;48.994;8.940;2022-12-18T06:55:44;76.47;;;29.43;;
32321;SDS011;61553;48.994;8.940;2022-12-18T06:58:09;72.97;;;28.20;;
32321;SDS011;61553;48.994;8.940;2022-12-18T07:00:35;68.90;;;29.47;;
32321;SDS011;61553;48.994;8.940;2022-12-18T07:03:01;78.50;;;34.40;;
32321;SDS011;61553;48.994;8.940;2022-12-18T07:05:26;90.37;;;37.57;;
32321;SDS011;61553;48.994;8.940;2022-12-18T07:07:52;145.50;;;56.97;;
32321;SDS011;61553;48.994;8.940;2022-12-18T07:10:17;96.13;;;39.37;;
32321;SDS011;61553;48.994;8.940;2022-12-18T07:12:43;106.67;;;43.70;;
32321;SDS011;61553;48.994;8.940;2022-12-18T07:15:09;93.33;;;36.70;;
32321;SDS011;61553;48.994;8.940;2022-12-18T07:17:35;82.83;;;30.37;;
32321;SDS011;61553;48.994;8.940;2022-12-18T07:20:00;73.43;;;28.57;;
32321;SDS011;61553;48.994;8.940;2022-12-18T07:22:26;80.30;;;31.63;;
32321;SDS011;61553;48.994;8.940;2022-12-18T07:24:52;73.67;;;27.93;;
32321;SDS011;61553;48.994;8.940;2022-12-18T07:27:17;69.27;;;28.57;;
32321;SDS011;61553;48.994;8.940;2022-12-18T07:29:43;70.57;;;28.13;;
32321;SDS011;61553;48.994;8.940;2022-12-18T07:32:09;77.53;;;28.53;;
32321;SDS011;61553;48.994;8.940;2022-12-18T07:34:34;70.53;;;28.07;;
32321;SDS011;61553;48.994;8.940;2022-12-18T07:37:00;76.23;;;29.70;;
32321;SDS011;61553;48.994;8.940;2022-12-18T07:39:26;82.37;;;30.43;;
32321;SDS011;61553;48.994;8.940;2022-12-18T07:41:51;83.00;;;32.27;;
32321;SDS011;61553;48.994;8.940;2022-12-18T07:44:35;76.10;;;31.53;;
32321;SDS011;61553;48.994;8.940;2022-12-18T07:47:02;68.67;;;28.20;;
32321;SDS011;61553;48.994;8.940;2022-12-18T07:49:28;80.27;;;30.27;;
32321;SDS011;61553;48.994;8.940;2022-12-18T07:51:54;72.47;;;29.03;;
32321;SDS011;61553;48.994;8.940;2022-12-18T07:54:21;70.63;;;29.33;;
32321;SDS011;61553;48.994;8.940;2022-12-18T07:56:49;75.37;;;31.57;;
32321;SDS011;61553;48.994;8.940;2022-12-18T07:59:16;68.03;;;27.70;;
32321;SDS011;61553;48.994;8.940;2022-12-18T08:01:42;81.27;;;31.37;;
32321;SDS011;61553;48.994;8.940;2022-12-18T08:04:08;67.87;;;28.13;;
32321;SDS011;61553;48.994;8.940;2022-12-18T08:06:34;73.87;;;29.17;;
32321;SDS011;61553;48.994;8.940;2022-12-18T08:08:59;69.40;;;28.37;;
32321;SDS011;61553;48.994;8.940;2022-12-18T08:11:26;72.00;;;27.87;;
32321;SDS011;61553;48.994;8.940;2022-12-18T08:13:53;81.80;;;31.47;;
32321;SDS011;61553;48.994;8.940;2022-12-18T08:16:19;81.20;;;33.23;;
32321;SDS011;61553;48.994;8.940;2022-12-18T08:18:45;82.57;;;33.10;;
32321;SDS011;61553;48.994;8.940;2022-12-18T08:21:12;78.57;;;31.37;;
32321;SDS011;61553;48.994;8.940;2022-12-18T08:23:48;69.27;;;28.77;;
32321;SDS011;61553;48.994;8.940;2022-12-18T08:26:15;76.23;;;31.60;;
32321;SDS011;61553;48.994;8.940;2022-12-18T08:28:41;70.13;;;30.10;;
32321;SDS011;61553;48.994;8.940;2022-12-18T08:31:08;75.53;;;31.10;;
32321;SDS011;61553;48.994;8.940;2022-12-18T08:33:34;74.33;;;30.03;;
32321;SDS011;61553;48.994;8.940;2022-12-18T08:36:02;75.33;;;30.23;;
32321;SDS011;61553;48.994;8.940;2022-12-18T08:38:29;65.03;;;27.50;;
32321;SDS011;61553;48.994;8.940;2022-12-18T08:41:01;71.43;;;29.57;;
32321;SDS011;61553;48.994;8.940;2022-12-18T08:43:28;76.87;;;30.03;;
32321;SDS011;61553;48.994;8.940;2022-12-18T08:46:16;66.83;;;30.03;;
32321;SDS011;61553;48.994;8.940;2022-12-18T08:48:46;70.40;;;27.93;;
32321;SDS011;61553;48.994;8.940;2022-12-18T08:51:11;74.57;;;29.20;;
32321;SDS011;61553;48.994;8.940;2022-12-18T08:53:37;70.77;;;27.63;;
32321;SDS011;61553;48.994;8.940;2022-12-18T08:56:04;72.17;;;29.53;;
32321;SDS011;61553;48.994;8.940;2022-12-18T08:58:30;69.47;;;28.57;;
32321;SDS011;61553;48.994;8.940;2022-12-18T09:00:59;78.97;;;29.23;;
32321;SDS011;61553;48.994;8.940;2022-12-18T09:03:26;80.10;;;29.97;;
32321;SDS011;61553;48.994;8.940;2022-12-18T09:05:52;77.90;;;30.30;;
32321;SDS011;61553;48.994;8.940;2022-12-18T09:08:18;73.37;;;29.00;;
32321;SDS011;61553;48.994;8.940;2022-12-18T09:10:44;76.47;;;28.07;;
32321;SDS011;61553;48.994;8.940;2022-12-18T09:13:11;70.40;;;28.63;;
32321;SDS011;61553;48.994;8.940;2022-12-18T09:15:44;77.10;;;29.77;;
32321;SDS011;61553;48.994;8.940;2022-12-18T09:18:11;81.20;;;28.33;;
32321;SDS011;61553;48.994;8.940;2022-12-18T09:20:38;76.27;;;29.70;;
32321;SDS011;61553;48.994;8.940;2022-12-18T09:23:04;76.20;;;30.03;;
32321;SDS011;61553;48.994;8.940;2022-12-18T09:25:31;81.53;;;32.00;;
32321;SDS011;61553;48.994;8.940;2022-12-18T09:28:09;81.07;;;32.92;;
32321;SDS011;61553;48.994;8.940;2022-12-18T09:30:43;76.97;;;31.27;;
32321;SDS011;61553;48.994;8.940;2022-12-18T09:33:13;71.63;;;32.00;;
32321;SDS011;61553;48.994;8.940;2022-12-18T09:35:39;66.53;;;28.33;;
32321;SDS011;61553;48.994;8.940;2022-12-18T09:38:07;64.63;;;26.92;;
32321;SDS011;61553;48.994;8.940;2022-12-18T09:43:34;62.78;;;28.17;;
32321;SDS011;61553;48.994;8.940;2022-12-18T09:46:16;62.42;;;26.98;;
32321;SDS011;61553;48.994;8.940;2022-12-18T09:48:59;54.25;;;23.05;;
32321;SDS011;61553;48.994;8.940;2022-12-18T09:51:28;57.92;;;24.02;;
32321;SDS011;61553;48.994;8.940;2022-12-18T09:54:01;55.40;;;24.20;;
32321;SDS011;61553;48.994;8.940;2022-12-18T09:56:31;55.47;;;26.92;;
32321;SDS011;61553;48.994;8.940;2022-12-18T09:59:03;57.05;;;27.08;;
32321;SDS011;61553;48.994;8.940;2022-12-18T10:01:29;51.10;;;24.77;;
32321;SDS011;61553;48.994;8.940;2022-12-18T10:03:56;49.95;;;23.30;;
32321;SDS011;61553;48.994;8.940;2022-12-18T10:06:32;49.80;;;24.42;;
32321;SDS011;61553;48.994;8.940;2022-12-18T10:09:07;54.20;;;25.10;;
32321;SDS011;61553;48.994;8.940;2022-12-18T10:25:52;48.85;;;23.85;;
32321;SDS011;61553;48.994;8.940;2022-12-18T10:28:19;44.92;;;23.83;;
32321;SDS011;61553;48.994;8.940;2022-12-18T10:30:45;50.15;;;23.85;;
32321;SDS011;61553;48.994;8.940;2022-12-18T10:33:16;48.17;;;23.95;;
32321;SDS011;61553;48.994;8.940;2022-12-18T10:35:44;47.65;;;23.83;;
32321;SDS011;61553;48.994;8.940;2022-12-18T10:43:20;52.60;;;25.63;;
32321;SDS011;61553;48.994;8.940;2022-12-18T10:46:04;57.10;;;25.67;;
32321;SDS011;61553;48.994;8.940;2022-12-18T10:48:34;48.58;;;23.17;;
32321;SDS011;61553;48.994;8.940;2022-12-18T10:51:04;50.13;;;24.30;;
32321;SDS011;61553;48.994;8.940;2022-12-18T10:53:32;50.10;;;24.33;;
32321;SDS011;61553;48.994;8.940;2022-12-18T10:55:59;46.88;;;23.38;;
32321;SDS011;61553;48.994;8.940;2022-12-18T10:58:29;49.45;;;24.10;;
32321;SDS011;61553;48.994;8.940;2022-12-18T11:03:44;58.55;;;25.20;;
32321;SDS011;61553;48.994;8.940;2022-12-18T11:06:19;54.95;;;25.83;;
32321;SDS011;61553;48.994;8.940;2022-12-18T11:11:28;60.00;;;25.55;;
32321;SDS011;61553;48.994;8.940;2022-12-18T11:14:03;50.35;;;22.63;;
32321;SDS011;61553;48.994;8.940;2022-12-18T11:16:34;54.80;;;23.00;;
32321;SDS011;61553;48.994;8.940;2022-12-18T11:19:19;47.05;;;23.95;;
32321;SDS011;61553;48.994;8.940;2022-12-18T11:21:57;56.67;;;24.90;;
32321;SDS011;61553;48.994;8.940;2022-12-18T11:26:54;58.35;;;26.92;;
32321;SDS011;61553;48.994;8.940;2022-12-18T11:29:31;62.25;;;25.27;;
32321;SDS011;61553;48.994;8.940;2022-12-18T11:34:45;60.78;;;26.60;;
32321;SDS011;61553;48.994;8.940;2022-12-18T11:37:13;62.45;;;25.45;;
32321;SDS011;61553;48.994;8.940;2022-12-18T11:39:42;61.10;;;27.35;;
32321;SDS011;61553;48.994;8.940;2022-12-18T11:42:20;61.13;;;25.60;;
32321;SDS011;61553;48.994;8.940;2022-12-18T11:45:02;61.35;;;25.00;;
32321;SDS011;61553;48.994;8.940;2022-12-18T11:47:42;60.83;;;26.40;;
32321;SDS011;61553;48.994;8.940;2022-12-18T11:50:16;60.47;;;25.38;;
32321;SDS011;61553;48.994;8.940;2022-12-18T11:52:43;63.50;;;27.38;;
32321;SDS011;61553;48.994;8.940;2022-12-18T11:55:12;65.15;;;27.70;;
32321;SDS011;61553;48.994;8.940;2022-12-18T12:00:27;57.03;;;24.55;;
32321;SDS011;61553;48.994;8.940;2022-12-18T12:03:06;65.72;;;26.13;;
32321;SDS011;61553;48.994;8.940;2022-12-18T12:11:34;56.60;;;25.95;;
32321;SDS011;61553;48.994;8.940;2022-12-18T12:14:28;60.85;;;25.08;;
32321;SDS011;61553;48.994;8.940;2022-12-18T12:17:23;59.30;;;23.70;;
32321;SDS011;61553;48.994;8.940;2022-12-18T12:20:07;55.55;;;23.80;;
32321;SDS011;61553;48.994;8.940;2022-12-18T12:23:02;59.15;;;25.15;;
32321;SDS011;61553;48.994;8.940;2022-12-18T12:34:23;61.80;;;24.90;;
32321;SDS011;61553;48.994;8.940;2022-12-18T12:39:37;62.80;;;25.48;;
32321;SDS011;61553;48.994;8.940;2022-12-18T12:42:06;49.60;;;21.45;;
32321;SDS011;61553;48.994;8.940;2022-12-18T12:47:33;56.30;;;23.35;;
32321;SDS011;61553;48.994;8.940;2022-12-18T12:50:03;53.65;;;22.33;;
32321;SDS011;61553;48.994;8.940;2022-12-18T12:52:41;62.67;;;24.73;;
32321;SDS011;61553;48.994;8.940;2022-12-18T12:55:43;54.70;;;24.48;;
32321;SDS011;61553;48.994;8.940;2022-12-18T13:04:03;57.72;;;23.30;;
32321;SDS011;61553;48.994;8.940;2022-12-18T13:06:45;53.85;;;23.88;;
32321;SDS011;61553;48.994;8.940;2022-12-18T13:09:22;56.78;;;23.55;;
32321;SDS011;61553;48.994;8.940;2022-12-18T13:11:47;57.90;;;25.00;;
32321;SDS011;61553;48.994;8.940;2022-12-18T13:14:33;52.85;;;23.10;;
32321;SDS011;61553;48.994;8.940;2022-12-18T13:19:44;56.15;;;23.83;;
32321;SDS011;61553;48.994;8.940;2022-12-18T13:22:23;54.88;;;23.60;;
32321;SDS011;61553;48.994;8.940;2022-12-18T13:24:53;52.80;;;22.58;;
32321;SDS011;61553;48.994;8.940;2022-12-18T13:35:39;52.10;;;23.02;;
32321;SDS011;61553;48.994;8.940;2022-12-18T13:43:51;58.20;;;23.92;;
32321;SDS011;61553;48.994;8.940;2022-12-18T13:48:56;55.08;;;23.63;;
32321;SDS011;61553;48.994;8.940;2022-12-18T13:51:25;59.10;;;25.95;;
32321;SDS011;61553;48.994;8.940;2022-12-18T13:53:58;58.90;;;24.42;;
32321;SDS011;61553;48.994;8.940;2022-12-18T13:56:31;61.30;;;23.92;;
32321;SDS011;61553;48.994;8.940;2022-12-18T14:01:52;58.38;;;24.63;;
32321;SDS011;61553;48.994;8.940;2022-12-18T14:04:24;59.20;;;24.63;;
32321;SDS011;61553;48.994;8.940;2022-12-18T14:07:04;63.15;;;25.23;;
32321;SDS011;61553;48.994;8.940;2022-12-18T14:09:42;63.88;;;24.23;;
32321;SDS011;61553;48.994;8.940;2022-12-18T14:12:18;56.03;;;23.92;;
32321;SDS011;61553;48.994;8.940;2022-12-18T14:18:41;58.83;;;24.65;;
32321;SDS011;61553;48.994;8.940;2022-12-18T14:21:05;69.40;;;25.45;;
32321;SDS011;61553;48.994;8.940;2022-12-18T14:23:41;63.42;;;25.38;;
32321;SDS011;61553;48.994;8.940;2022-12-18T14:26:20;63.92;;;25.17;;
32321;SDS011;61553;48.994;8.940;2022-12-18T14:34:41;62.00;;;26.48;;
32321;SDS011;61553;48.994;8.940;2022-12-18T14:37:11;67.88;;;27.30;;
32321;SDS011;61553;48.994;8.940;2022-12-18T14:39:39;63.92;;;25.42;;
32321;SDS011;61553;48.994;8.940;2022-12-18T14:42:05;59.45;;;24.85;;
32321;SDS011;61553;48.994;8.940;2022-12-18T14:44:30;60.65;;;26.80;;
32321;SDS011;61553;48.994;8.940;2022-12-18T14:46:56;63.22;;;25.92;;
32321;SDS011;61553;48.994;8.940;2022-12-18T14:51:56;59.90;;;25.85;;
32321;SDS011;61553;48.994;8.940;2022-12-18T14:54:27;68.13;;;26.58;;
32321;SDS011;61553;48.994;8.940;2022-12-18T14:57:04;72.53;;;29.00;;
32321;SDS011;61553;48.994;8.940;2022-12-18T14:59:51;68.97;;;27.00;;
32321;SDS011;61553;48.994;8.940;2022-12-18T15:02:24;61.15;;;25.60;;
32321;SDS011;61553;48.994;8.940;2022-12-18T15:05:00;63.78;;;27.05;;
32321;SDS011;61553;48.994;8.940;2022-12-18T15:10:12;66.50;;;26.17;;
32321;SDS011;61553;48.994;8.940;2022-12-18T15:12:42;71.35;;;25.27;;
32321;SDS011;61553;48.994;8.940;2022-12-18T15:18:01;64.45;;;26.98;;
32321;SDS011;61553;48.994;8.940;2022-12-18T15:25:45;68.32;;;26.27;;
32321;SDS011;61553;48.994;8.940;2022-12-18T15:28:32;66.35;;;28.88;;
32321;SDS011;61553;48.994;8.940;2022-12-18T15:33:41;71.43;;;29.38;;
32321;SDS011;61553;48.994;8.940;2022-12-18T15:36:15;78.57;;;29.38;;
32321;SDS011;61553;48.994;8.940;2022-12-18T15:38:43;66.15;;;28.38;;
32321;SDS011;61553;48.994;8.940;2022-12-18T15:41:18;63.03;;;27.70;;
32321;SDS011;61553;48.994;8.940;2022-12-18T15:43:46;73.38;;;30.40;;
32321;SDS011;61553;48.994;8.940;2022-12-18T15:46:20;67.05;;;27.38;;
32321;SDS011;61553;48.994;8.940;2022-12-18T15:48:51;73.60;;;29.90;;
32321;SDS011;61553;48.994;8.940;2022-12-18T15:51:25;73.03;;;28.52;;
32321;SDS011;61553;48.994;8.940;2022-12-18T15:53:55;69.30;;;27.23;;
32321;SDS011;61553;48.994;8.940;2022-12-18T15:56:23;68.75;;;28.30;;
32321;SDS011;61553;48.994;8.940;2022-12-18T15:59:12;88.47;;;34.97;;
32321;SDS011;61553;48.994;8.940;2022-12-18T16:01:40;68.63;;;28.95;;
32321;SDS011;61553;48.994;8.940;2022-12-18T16:04:09;73.80;;;29.85;;
32321;SDS011;61553;48.994;8.940;2022-12-18T16:06:37;84.05;;;32.17;;
32321;SDS011;61553;48.994;8.940;2022-12-18T16:09:03;80.72;;;34.17;;
32321;SDS011;61553;48.994;8.940;2022-12-18T16:11:29;83.97;;;34.22;;
32321;SDS011;61553;48.994;8.940;2022-12-18T16:14:10;76.25;;;31.65;;
32321;SDS011;61553;48.994;8.940;2022-12-18T16:16:43;76.32;;;31.70;;
32321;SDS011;61553;48.994;8.940;2022-12-18T16:19:09;72.55;;;31.33;;
32321;SDS011;61553;48.994;8.940;2022-12-18T16:21:35;79.28;;;32.67;;
32321;SDS011;61553;48.994;8.940;2022-12-18T16:24:01;77.88;;;32.03;;
32321;SDS011;61553;48.994;8.940;2022-12-18T16:26:27;74.28;;;30.35;;
32321;SDS011;61553;48.994;8.940;2022-12-18T16:28:52;76.85;;;31.17;;
32321;SDS011;61553;48.994;8.940;2022-12-18T16:31:18;73.78;;;29.85;;
32321;SDS011;61553;48.994;8.940;2022-12-18T16:33:44;62.08;;;27.85;;
32321;SDS011;61553;48.994;8.940;2022-12-18T16:36:10;75.82;;;30.27;;
32321;SDS011;61553;48.994;8.940;2022-12-18T16:38:35;69.40;;;29.05;;
32321;SDS011;61553;48.994;8.940;2022-12-18T16:41:01;81.05;;;30.70;;
32321;SDS011;61553;48.994;8.940;2022-12-18T16:43:49;74.05;;;30.90;;
32321;SDS011;61553;48.994;8.940;2022-12-18T16:46:15;93.50;;;37.85;;
32321;SDS011;61553;48.994;8.940;2022-12-18T16:48:41;84.15;;;34.33;;
32321;SDS011;61553;48.994;8.940;2022-12-18T16:51:06;74.20;;;31.77;;
32321;SDS011;61553;48.994;8.940;2022-12-18T16:53:32;74.03;;;31.52;;